Time;durP1;ratioP1;P1;durP2;ratioP2;P2;SDS_P1;SDS_P2;PMS_P1;PMS_P2;Temp;Humidity;BMP_temperature;BMP_pressure;BME280_temperature;BME280_humidity;BME280_pressure;Samples;Min_cycle;Max_cycle;Signal;HPM_P1;HPM_P2
2021/07/30 00:02:24;;;;;;;15.63;5.97;;;;;;;;;;5018797;28;20451;-70
2021/07/30 00:04:50;;;;;;;14.07;5.40;;;;;;;;;;5022264;28;20219;-70
2021/07/30 00:07:15;;;;;;;13.65;6.75;;;;;;;;;;5020453;28;20213;-70
2021/07/30 00:09:40;;;;;;;20.98;6.82;;;;;;;;;;5021925;28;20387;-70
2021/07/30 00:12:06;;;;;;;14.02;6.15;;;;;;;;;;5021109;28;20264;-71
2021/07/30 00:14:32;;;;;;;12.35;5.97;;;;;;;;;;5020534;28;20653;-70
2021/07/30 00:16:57;;;;;;;20.88;7.32;;;;;;;;;;5016767;28;20224;-70
2021/07/30 00:19:23;;;;;;;17.00;7.00;;;;;;;;;;5018790;28;20232;-71
2021/07/30 00:21:48;;;;;;;15.40;6.85;;;;;;;;;;5018229;28;20203;-71
2021/07/30 00:24:14;;;;;;;14.65;7.55;;;;;;;;;;5019997;28;20178;-71
2021/07/30 00:26:39;;;;;;;21.70;7.97;;;;;;;;;;5027932;28;20208;-70
2021/07/30 00:29:04;;;;;;;23.15;8.43;;;;;;;;;;5015385;28;20201;-70
2021/07/30 00:31:30;;;;;;;17.67;8.05;;;;;;;;;;5034223;28;20202;-70
2021/07/30 00:33:55;;;;;;;20.40;8.20;;;;;;;;;;5015845;28;20654;-69
2021/07/30 00:36:20;;;;;;;17.92;7.55;;;;;;;;;;5021722;28;20548;-70
2021/07/30 00:38:46;;;;;;;18.35;8.18;;;;;;;;;;5018057;28;20186;-70
2021/07/30 00:41:11;;;;;;;13.43;7.18;;;;;;;;;;5024686;28;20170;-70
2021/07/30 00:43:36;;;;;;;24.83;8.55;;;;;;;;;;5019242;28;20186;-69
2021/07/30 00:46:02;;;;;;;21.08;7.85;;;;;;;;;;5025830;28;20184;-70
2021/07/30 00:48:29;;;;;;;19.30;8.43;;;;;;;;;;5015276;28;20281;-71
2021/07/30 00:50:56;;;;;;;22.13;9.18;;;;;;;;;;5027018;28;20216;-71
2021/07/30 00:53:21;;;;;;;14.82;9.77;;;;;;;;;;5017392;28;20201;-71
2021/07/30 00:55:48;;;;;;;19.27;9.85;;;;;;;;;;5025784;28;20181;-71
2021/07/30 00:58:14;;;;;;;21.02;10.82;;;;;;;;;;5019528;28;20277;-71
2021/07/30 01:00:40;;;;;;;17.17;8.75;;;;;;;;;;5016729;28;20288;-71
2021/07/30 01:03:06;;;;;;;21.80;9.95;;;;;;;;;;5022487;28;20236;-71
2021/07/30 01:05:32;;;;;;;21.05;10.45;;;;;;;;;;5016666;28;20229;-71
2021/07/30 01:07:58;;;;;;;22.00;10.15;;;;;;;;;;5027149;28;20627;-71
2021/07/30 01:10:24;;;;;;;21.75;10.55;;;;;;;;;;5018153;28;20540;-71
2021/07/30 01:12:49;;;;;;;18.38;10.98;;;;;;;;;;5028908;28;20182;-70
2021/07/30 01:15:15;;;;;;;23.00;9.65;;;;;;;;;;5016771;28;20194;-70
2021/07/30 01:17:40;;;;;;;19.10;9.48;;;;;;;;;;5023980;28;20182;-70
2021/07/30 01:20:09;;;;;;;19.95;8.63;;;;;;;;;;5014338;28;20221;-70
2021/07/30 01:22:47;;;;;;;18.85;8.73;;;;;;;;;;5021458;28;20768;-70
2021/07/30 01:25:13;;;;;;;22.23;9.15;;;;;;;;;;5014607;28;20195;-70
2021/07/30 01:27:38;;;;;;;19.25;9.15;;;;;;;;;;5022390;28;20190;-69
2021/07/30 01:30:04;;;;;;;16.15;8.07;;;;;;;;;;5013380;28;20194;-70
2021/07/30 01:32:29;;;;;;;17.00;9.85;;;;;;;;;;5027735;28;20697;-70
2021/07/30 01:34:54;;;;;;;15.38;8.60;;;;;;;;;;5020518;28;20204;-69
2021/07/30 01:37:25;;;;;;;17.08;8.88;;;;;;;;;;5017259;28;20705;-70
2021/07/30 01:39:51;;;;;;;14.95;8.50;;;;;;;;;;5022495;28;20198;-69
2021/07/30 01:42:16;;;;;;;22.02;9.40;;;;;;;;;;5020090;28;20166;-69
2021/07/30 01:44:41;;;;;;;17.42;9.10;;;;;;;;;;5020325;28;20201;-69
2021/07/30 01:47:08;;;;;;;14.82;9.18;;;;;;;;;;5011452;28;20183;-70
2021/07/30 01:49:33;;;;;;;16.65;8.70;;;;;;;;;;5022534;28;20191;-69
2021/07/30 01:51:58;;;;;;;20.42;9.25;;;;;;;;;;5017928;28;20210;-69
2021/07/30 01:54:24;;;;;;;17.58;9.05;;;;;;;;;;5017265;28;20540;-69
2021/07/30 01:56:49;;;;;;;18.67;8.73;;;;;;;;;;5020000;28;20221;-69
2021/07/30 01:59:14;;;;;;;15.00;8.70;;;;;;;;;;5020468;28;20208;-70
2021/07/30 02:01:40;;;;;;;18.17;8.68;;;;;;;;;;5020444;28;20648;-70
2021/07/30 02:04:05;;;;;;;19.13;8.88;;;;;;;;;;5018226;28;20193;-70
2021/07/30 02:06:30;;;;;;;17.65;8.65;;;;;;;;;;5024396;28;20233;-69
2021/07/30 02:08:58;;;;;;;17.15;8.35;;;;;;;;;;5013433;28;20284;-69
2021/07/30 02:11:23;;;;;;;13.57;8.88;;;;;;;;;;5024553;28;20630;-69
2021/07/30 02:16:33;;;;;;;15.95;8.73;;;;;;;;;;5017254;28;20197;-69
2021/07/30 02:18:58;;;;;;;19.33;9.68;;;;;;;;;;5010707;28;20558;-69
2021/07/30 02:21:23;;;;;;;17.25;8.45;;;;;;;;;;5027841;28;20193;-70
2021/07/30 02:23:49;;;;;;;16.95;8.50;;;;;;;;;;5013430;28;20179;-70
2021/07/30 02:26:14;;;;;;;17.92;8.90;;;;;;;;;;5020364;28;20178;-70
2021/07/30 02:28:39;;;;;;;17.63;9.65;;;;;;;;;;5014959;28;20186;-70
2021/07/30 02:31:05;;;;;;;22.50;9.98;;;;;;;;;;5022561;28;20269;-70
2021/07/30 02:33:30;;;;;;;23.38;10.60;;;;;;;;;;5012447;28;20190;-70
2021/07/30 02:35:56;;;;;;;18.98;11.65;;;;;;;;;;5021196;28;20692;-70
2021/07/30 02:38:21;;;;;;;17.80;11.10;;;;;;;;;;5022549;28;20664;-70
2021/07/30 02:40:46;;;;;;;22.17;11.30;;;;;;;;;;5016167;28;20186;-70
2021/07/30 02:43:12;;;;;;;15.95;10.55;;;;;;;;;;5023416;28;20638;-70
2021/07/30 02:45:37;;;;;;;17.65;10.75;;;;;;;;;;5025549;28;20679;-70
2021/07/30 02:48:02;;;;;;;21.30;11.30;;;;;;;;;;5020312;28;20273;-70
2021/07/30 02:50:28;;;;;;;22.80;10.95;;;;;;;;;;5016494;28;20289;-70
2021/07/30 02:52:53;;;;;;;17.60;10.27;;;;;;;;;;5021412;28;20558;-70
2021/07/30 02:55:19;;;;;;;18.80;10.40;;;;;;;;;;5013451;28;20606;-70
2021/07/30 02:57:45;;;;;;;18.27;10.63;;;;;;;;;;5018253;28;20222;-70
2021/07/30 03:00:10;;;;;;;17.40;10.63;;;;;;;;;;5011008;28;20674;-70
2021/07/30 03:02:36;;;;;;;20.17;11.20;;;;;;;;;;5020306;28;20269;-70
2021/07/30 03:05:01;;;;;;;21.02;11.27;;;;;;;;;;5016009;28;20186;-70
2021/07/30 03:07:27;;;;;;;18.27;11.77;;;;;;;;;;5021080;28;20178;-70
2021/07/30 03:09:52;;;;;;;20.67;11.80;;;;;;;;;;5024359;28;20190;-70
2021/07/30 03:12:17;;;;;;;22.70;11.82;;;;;;;;;;5015927;28;20202;-70
2021/07/30 03:14:43;;;;;;;25.63;12.05;;;;;;;;;;5025061;28;20190;-70
2021/07/30 03:17:08;;;;;;;29.08;13.25;;;;;;;;;;5014441;28;20194;-70
2021/07/30 03:19:34;;;;;;;22.65;13.20;;;;;;;;;;5023885;28;20232;-70
2021/07/30 03:21:59;;;;;;;22.92;13.93;;;;;;;;;;5007330;28;20272;-70
2021/07/30 03:24:24;;;;;;;25.10;14.63;;;;;;;;;;5023743;28;20684;-70
2021/07/30 03:26:50;;;;;;;21.63;14.27;;;;;;;;;;5021990;28;20197;-70
2021/07/30 03:29:15;;;;;;;20.13;13.85;;;;;;;;;;5021717;28;20596;-70
2021/07/30 03:31:40;;;;;;;22.13;13.18;;;;;;;;;;5006989;28;20215;-69
2021/07/30 03:34:06;;;;;;;20.98;11.50;;;;;;;;;;5024470;28;20549;-69
2021/07/30 03:36:32;;;;;;;25.67;13.38;;;;;;;;;;5013596;28;20642;-70
2021/07/30 03:38:57;;;;;;;18.55;12.30;;;;;;;;;;5015702;28;20661;-69
2021/07/30 03:41:23;;;;;;;25.80;12.15;;;;;;;;;;5027346;28;20478;-69
2021/07/30 03:43:48;;;;;;;20.33;12.43;;;;;;;;;;5018699;28;20193;-69
2021/07/30 03:46:14;;;;;;;22.65;11.95;;;;;;;;;;5027517;28;20178;-69
2021/07/30 03:48:39;;;;;;;20.50;11.57;;;;;;;;;;5016165;28;20256;-69
2021/07/30 03:51:04;;;;;;;17.67;11.20;;;;;;;;;;5032430;28;20210;-69
2021/07/30 03:53:30;;;;;;;19.35;11.25;;;;;;;;;;5018960;28;20186;-70
2021/07/30 03:55:55;;;;;;;19.67;10.80;;;;;;;;;;5035561;28;20182;-70
2021/07/30 03:58:20;;;;;;;16.42;10.57;;;;;;;;;;5015565;28;20199;-69
2021/07/30 04:00:45;;;;;;;18.33;11.13;;;;;;;;;;5037949;28;20208;-69
2021/07/30 04:03:11;;;;;;;18.63;11.80;;;;;;;;;;5015986;28;20202;-70
2021/07/30 04:05:36;;;;;;;16.48;9.48;;;;;;;;;;5028951;28;20182;-71
2021/07/30 04:08:04;;;;;;;18.95;10.70;;;;;;;;;;5012973;28;20297;-69
2021/07/30 04:10:29;;;;;;;17.80;11.27;;;;;;;;;;5030297;28;20194;-70
2021/07/30 04:12:54;;;;;;;23.33;11.02;;;;;;;;;;5023673;28;20270;-69
2021/07/30 04:15:20;;;;;;;20.58;12.38;;;;;;;;;;5016684;28;20187;-69
2021/07/30 04:17:48;;;;;;;18.15;10.73;;;;;;;;;;5017964;28;20224;-70
2021/07/30 04:20:13;;;;;;;19.52;11.32;;;;;;;;;;5021792;28;20190;-69
2021/07/30 04:22:38;;;;;;;18.35;11.82;;;;;;;;;;5019962;28;20186;-69
2021/07/30 04:25:04;;;;;;;19.35;11.93;;;;;;;;;;5021417;28;20217;-70
2021/07/30 04:27:30;;;;;;;22.08;11.15;;;;;;;;;;5022103;28;20194;-70
2021/07/30 04:29:55;;;;;;;18.27;11.45;;;;;;;;;;5019391;28;20194;-70
2021/07/30 04:32:20;;;;;;;17.88;10.57;;;;;;;;;;5025192;28;20222;-69
2021/07/30 04:34:46;;;;;;;22.35;11.32;;;;;;;;;;5018747;28;20186;-69
2021/07/30 04:37:11;;;;;;;19.92;10.63;;;;;;;;;;5023498;28;20228;-70
2021/07/30 04:39:36;;;;;;;19.10;9.82;;;;;;;;;;5019031;28;20261;-69
2021/07/30 04:42:03;;;;;;;18.52;9.55;;;;;;;;;;5021687;28;20296;-72
2021/07/30 04:44:29;;;;;;;16.38;10.38;;;;;;;;;;5026710;28;20200;-69
2021/07/30 04:46:54;;;;;;;21.73;9.90;;;;;;;;;;5018243;28;20193;-69
2021/07/30 04:49:19;;;;;;;16.50;9.93;;;;;;;;;;5025003;28;20178;-70
2021/07/30 04:51:45;;;;;;;15.57;10.02;;;;;;;;;;5019985;28;20439;-69
2021/07/30 04:54:10;;;;;;;15.80;10.00;;;;;;;;;;5021360;28;20214;-69
2021/07/30 04:56:35;;;;;;;14.05;8.93;;;;;;;;;;5009814;28;20326;-69
2021/07/30 04:59:00;;;;;;;14.82;9.25;;;;;;;;;;5037214;28;20750;-69
2021/07/30 05:01:26;;;;;;;13.88;8.85;;;;;;;;;;5011395;28;20190;-69
2021/07/30 05:03:51;;;;;;;13.85;8.80;;;;;;;;;;5059670;28;20198;-69
2021/07/30 05:06:23;;;;;;;14.50;9.27;;;;;;;;;;5017798;28;20202;-69
2021/07/30 05:08:49;;;;;;;19.33;9.13;;;;;;;;;;5023769;28;20191;-69
2021/07/30 05:11:15;;;;;;;19.42;9.20;;;;;;;;;;5021965;28;20217;-69
2021/07/30 05:13:42;;;;;;;16.17;10.15;;;;;;;;;;5021705;28;20194;-69
2021/07/30 05:16:13;;;;;;;16.75;9.70;;;;;;;;;;5028703;28;20249;-69
2021/07/30 05:18:39;;;;;;;16.20;8.57;;;;;;;;;;5015429;28;20614;-69
2021/07/30 05:21:05;;;;;;;21.50;9.50;;;;;;;;;;5021783;28;20175;-69
2021/07/30 05:23:31;;;;;;;16.35;8.68;;;;;;;;;;5015337;28;20186;-69
2021/07/30 05:25:57;;;;;;;18.33;9.93;;;;;;;;;;5026569;28;20665;-69
2021/07/30 05:28:22;;;;;;;19.13;8.88;;;;;;;;;;5011701;28;20239;-69
2021/07/30 05:30:48;;;;;;;15.40;7.97;;;;;;;;;;5021672;28;20573;-69
2021/07/30 05:33:13;;;;;;;17.48;8.65;;;;;;;;;;5013331;28;20319;-69
2021/07/30 05:35:38;;;;;;;17.98;9.15;;;;;;;;;;5023285;28;20343;-69
2021/07/30 05:38:04;;;;;;;17.38;8.95;;;;;;;;;;5012316;28;20190;-69
2021/07/30 05:40:29;;;;;;;15.75;9.30;;;;;;;;;;5043458;28;20200;-69
2021/07/30 05:42:54;;;;;;;15.45;8.85;;;;;;;;;;5014418;28;24273;-68
2021/07/30 05:45:19;;;;;;;18.27;9.07;;;;;;;;;;5019885;28;20282;-71
2021/07/30 05:47:48;;;;;;;13.55;7.80;;;;;;;;;;5021366;28;20218;-69
2021/07/30 05:50:14;;;;;;;13.80;8.23;;;;;;;;;;5008997;28;20266;-69
2021/07/30 05:52:39;;;;;;;13.52;8.15;;;;;;;;;;5015772;28;20213;-69
2021/07/30 05:55:06;;;;;;;16.20;8.38;;;;;;;;;;5015338;28;20217;-69
2021/07/30 05:57:33;;;;;;;16.50;8.43;;;;;;;;;;5016130;28;20227;-69
2021/07/30 06:00:05;;;;;;;16.52;8.27;;;;;;;;;;5018976;28;20676;-69
2021/07/30 06:02:30;;;;;;;12.60;7.72;;;;;;;;;;5021097;28;20263;-69
2021/07/30 06:04:56;;;;;;;17.42;9.15;;;;;;;;;;5017570;28;20277;-69
2021/07/30 06:07:21;;;;;;;16.55;8.57;;;;;;;;;;5020533;28;20550;-70
2021/07/30 06:09:46;;;;;;;12.13;8.48;;;;;;;;;;5017664;28;20590;-70
2021/07/30 06:12:12;;;;;;;15.52;8.68;;;;;;;;;;5016112;28;20222;-69
2021/07/30 06:14:37;;;;;;;22.55;9.13;;;;;;;;;;5020417;28;20182;-70
2021/07/30 06:17:03;;;;;;;14.75;8.82;;;;;;;;;;5023215;28;20190;-69
2021/07/30 06:19:28;;;;;;;17.55;8.95;;;;;;;;;;5017538;28;20175;-69
2021/07/30 06:21:53;;;;;;;18.42;9.10;;;;;;;;;;5010594;28;20186;-69
2021/07/30 06:24:19;;;;;;;15.48;9.13;;;;;;;;;;5024437;28;20193;-68
2021/07/30 06:26:44;;;;;;;14.23;9.13;;;;;;;;;;5011334;28;20470;-69
2021/07/30 06:29:09;;;;;;;14.85;8.57;;;;;;;;;;5020244;28;20205;-69
2021/07/30 06:31:35;;;;;;;20.88;8.90;;;;;;;;;;5011641;28;20202;-69
2021/07/30 06:34:00;;;;;;;13.32;8.55;;;;;;;;;;5025817;28;20213;-69
2021/07/30 06:36:25;;;;;;;16.88;8.93;;;;;;;;;;5008438;28;20559;-69
2021/07/30 06:38:51;;;;;;;19.20;8.95;;;;;;;;;;5021160;28;20171;-69
2021/07/30 06:41:17;;;;;;;20.13;8.88;;;;;;;;;;5013102;28;20195;-68
2021/07/30 06:43:43;;;;;;;16.10;9.07;;;;;;;;;;5023638;28;20236;-68
2021/07/30 06:46:08;;;;;;;15.18;8.35;;;;;;;;;;5014692;28;20866;-71
2021/07/30 06:48:34;;;;;;;16.20;7.90;;;;;;;;;;5023244;28;20174;-68
2021/07/30 06:50:59;;;;;;;20.85;8.60;;;;;;;;;;5019984;28;20704;-69
2021/07/30 06:53:24;;;;;;;15.48;8.70;;;;;;;;;;5013907;28;20225;-69
2021/07/30 06:55:50;;;;;;;15.75;8.25;;;;;;;;;;5015114;28;20647;-69
2021/07/30 06:58:15;;;;;;;15.30;7.78;;;;;;;;;;5012272;28;20502;-70
2021/07/30 07:00:40;;;;;;;17.45;8.77;;;;;;;;;;5019152;28;20205;-70
2021/07/30 07:03:06;;;;;;;16.85;7.78;;;;;;;;;;5012732;28;20201;-70
2021/07/30 07:05:33;;;;;;;11.57;8.13;;;;;;;;;;5023552;28;20271;-70
2021/07/30 07:07:58;;;;;;;21.20;8.60;;;;;;;;;;5013280;28;20197;-70
2021/07/30 07:10:24;;;;;;;13.85;7.35;;;;;;;;;;5023836;28;20185;-70
2021/07/30 07:12:49;;;;;;;18.85;8.45;;;;;;;;;;4326894;28;10000747;-70
2021/07/30 07:15:14;;;;;;;15.70;8.25;;;;;;;;;;5021770;28;20186;-71
2021/07/30 07:17:40;;;;;;;15.35;7.97;;;;;;;;;;5013668;28;20189;-70
2021/07/30 07:20:06;;;;;;;16.10;7.72;;;;;;;;;;5027783;28;20194;-70
2021/07/30 07:22:31;;;;;;;13.30;7.65;;;;;;;;;;5020894;28;20193;-70
2021/07/30 07:24:57;;;;;;;18.00;7.63;;;;;;;;;;5019118;28;20190;-70
2021/07/30 07:27:22;;;;;;;13.98;7.45;;;;;;;;;;5019180;28;20186;-71
2021/07/30 07:29:48;;;;;;;15.57;7.35;;;;;;;;;;5019517;28;20194;-71
2021/07/30 07:32:13;;;;;;;15.20;7.00;;;;;;;;;;5018973;28;20708;-71
2021/07/30 07:34:39;;;;;;;15.13;7.53;;;;;;;;;;5013414;28;20249;-72
2021/07/30 07:37:04;;;;;;;17.25;7.43;;;;;;;;;;5014202;28;20213;-70
2021/07/30 07:39:30;;;;;;;12.80;6.43;;;;;;;;;;5014551;28;20187;-71
2021/07/30 07:41:57;;;;;;;13.95;6.72;;;;;;;;;;5019080;28;20529;-70
2021/07/30 07:44:23;;;;;;;15.02;6.95;;;;;;;;;;5013769;28;20193;-71
2021/07/30 07:46:48;;;;;;;14.73;6.30;;;;;;;;;;5021543;28;20186;-70
2021/07/30 07:49:13;;;;;;;11.07;5.97;;;;;;;;;;5009584;28;20248;-71
2021/07/30 07:51:39;;;;;;;15.35;5.93;;;;;;;;;;5020117;28;20300;-68
2021/07/30 07:54:04;;;;;;;13.65;6.20;;;;;;;;;;5021828;28;20266;-70
2021/07/30 07:56:30;;;;;;;14.88;6.25;;;;;;;;;;5010908;28;20222;-69
2021/07/30 07:58:55;;;;;;;15.40;6.20;;;;;;;;;;5017879;28;20207;-68
2021/07/30 08:01:20;;;;;;;14.63;6.30;;;;;;;;;;5015937;28;20201;-68
2021/07/30 08:03:46;;;;;;;13.43;5.25;;;;;;;;;;5022412;28;20545;-71
2021/07/30 08:06:19;;;;;;;16.20;6.25;;;;;;;;;;5013436;28;20194;-71
2021/07/30 08:08:45;;;;;;;16.83;6.47;;;;;;;;;;5024027;28;20257;-70
2021/07/30 08:11:11;;;;;;;15.52;5.72;;;;;;;;;;5008838;28;20198;-70
2021/07/30 08:13:36;;;;;;;12.07;5.75;;;;;;;;;;5026031;28;21733;-71
2021/07/30 08:16:02;;;;;;;10.52;5.55;;;;;;;;;;5008456;28;20190;-70
2021/07/30 08:18:27;;;;;;;10.82;5.90;;;;;;;;;;5024195;28;20276;-67
2021/07/30 08:20:53;;;;;;;14.43;5.43;;;;;;;;;;5006413;28;20237;-68
2021/07/30 08:23:18;;;;;;;13.18;5.32;;;;;;;;;;5026926;28;20668;-68
2021/07/30 08:25:43;;;;;;;11.57;6.05;;;;;;;;;;5015903;28;20209;-69
2021/07/30 08:28:09;;;;;;;12.98;5.85;;;;;;;;;;5012004;28;20201;-69
2021/07/30 08:30:34;;;;;;;11.25;5.65;;;;;;;;;;5021409;28;20217;-70
2021/07/30 08:32:59;;;;;;;16.40;6.00;;;;;;;;;;5014237;28;20198;-70
2021/07/30 08:35:25;;;;;;;14.27;5.47;;;;;;;;;;5011434;28;20318;-70
2021/07/30 08:37:50;;;;;;;13.90;5.38;;;;;;;;;;5007588;28;20194;-69
2021/07/30 08:40:16;;;;;;;12.90;5.50;;;;;;;;;;5018600;28;20185;-70
2021/07/30 08:42:41;;;;;;;10.65;5.45;;;;;;;;;;5009530;28;20668;-68
2021/07/30 08:45:07;;;;;;;9.98;4.70;;;;;;;;;;5014346;28;20218;-70
2021/07/30 08:47:33;;;;;;;11.50;4.75;;;;;;;;;;5007170;28;20270;-70
2021/07/30 08:49:59;;;;;;;14.68;4.65;;;;;;;;;;5018132;28;20720;-69
2021/07/30 08:52:41;;;;;;;11.57;4.45;;;;;;;;;;5010550;28;20601;-70
2021/07/30 08:55:07;;;;;;;10.77;4.60;;;;;;;;;;5018768;28;20198;-70
2021/07/30 08:57:34;;;;;;;13.88;4.70;;;;;;;;;;5019116;28;20229;-71
2021/07/30 09:00:10;;;;;;;13.75;4.38;;;;;;;;;;5020661;28;20733;-70
2021/07/30 09:02:36;;;;;;;10.52;4.50;;;;;;;;;;5018804;28;20249;-70
2021/07/30 09:05:23;;;;;;;11.55;4.63;;;;;;;;;;5013276;28;20178;-69
2021/07/30 09:07:49;;;;;;;8.73;3.67;;;;;;;;;;5015053;28;20570;-67
2021/07/30 09:10:28;;;;;;;9.90;3.92;;;;;;;;;;5008212;28;20171;-68
2021/07/30 09:13:32;;;;;;;8.50;4.25;;;;;;;;;;5017909;28;20242;-68
2021/07/30 09:16:11;;;;;;;8.32;4.30;;;;;;;;;;5018089;28;20198;-68
2021/07/30 09:18:39;;;;;;;10.88;4.75;;;;;;;;;;5013435;28;20525;-68
2021/07/30 09:21:32;;;;;;;7.57;4.03;;;;;;;;;;5014774;28;20597;-69
2021/07/30 09:24:06;;;;;;;10.65;4.18;;;;;;;;;;5015084;28;20187;-68
2021/07/30 09:26:54;;;;;;;8.90;4.10;;;;;;;;;;5018184;28;20678;-69
2021/07/30 09:29:25;;;;;;;9.57;3.65;;;;;;;;;;5004508;28;20522;-68
2021/07/30 09:31:53;;;;;;;5.93;4.07;;;;;;;;;;5018213;28;20198;-68
2021/07/30 09:34:41;;;;;;;12.18;4.38;;;;;;;;;;5016350;28;20187;-68
2021/07/30 09:37:12;;;;;;;8.55;3.83;;;;;;;;;;5017318;28;20205;-69
2021/07/30 09:39:43;;;;;;;9.68;4.05;;;;;;;;;;5019938;28;20641;-69
2021/07/30 09:42:12;;;;;;;10.18;4.05;;;;;;;;;;5020190;28;20208;-68
2021/07/30 09:44:43;;;;;;;9.13;3.80;;;;;;;;;;5022470;28;20767;-68
2021/07/30 09:47:13;;;;;;;8.13;3.45;;;;;;;;;;5012892;28;20220;-68
2021/07/30 09:49:50;;;;;;;7.72;3.70;;;;;;;;;;5019048;28;20645;-68
2021/07/30 09:52:19;;;;;;;8.35;4.05;;;;;;;;;;5018269;28;20189;-68
2021/07/30 09:54:52;;;;;;;10.45;4.10;;;;;;;;;;5022001;28;20223;-68
2021/07/30 09:57:20;;;;;;;8.38;3.60;;;;;;;;;;5015761;28;20241;-68
2021/07/30 09:59:46;;;;;;;13.07;4.07;;;;;;;;;;5021276;28;20729;-68
2021/07/30 10:02:13;;;;;;;12.18;4.03;;;;;;;;;;5008476;28;20198;-68
2021/07/30 10:04:43;;;;;;;11.07;3.28;;;;;;;;;;5016251;28;20538;-68
2021/07/30 10:07:15;;;;;;;6.95;2.97;;;;;;;;;;5015105;28;20186;-67
2021/07/30 10:09:46;;;;;;;11.80;3.42;;;;;;;;;;5016522;28;20202;-68
2021/07/30 10:12:12;;;;;;;6.35;3.10;;;;;;;;;;5018260;28;20212;-67
2021/07/30 10:14:37;;;;;;;8.23;3.35;;;;;;;;;;5020441;28;20195;-67
2021/07/30 10:17:04;;;;;;;6.93;3.50;;;;;;;;;;5015182;28;20204;-68
2021/07/30 10:19:30;;;;;;;9.43;3.38;;;;;;;;;;5023524;28;20186;-67
2021/07/30 10:21:59;;;;;;;11.35;3.22;;;;;;;;;;5012398;28;20690;-68
2021/07/30 10:24:28;;;;;;;8.27;2.97;;;;;;;;;;5016832;28;20772;-68
2021/07/30 10:26:55;;;;;;;7.85;3.55;;;;;;;;;;5024048;28;20186;-68
2021/07/30 10:29:20;;;;;;;10.45;3.47;;;;;;;;;;5015878;28;20247;-66
2021/07/30 10:31:50;;;;;;;10.73;3.42;;;;;;;;;;5021843;28;20193;-67
2021/07/30 10:34:46;;;;;;;10.82;3.47;;;;;;;;;;5012895;28;20248;-67
2021/07/30 10:37:34;;;;;;;7.65;2.90;;;;;;;;;;5018591;28;20186;-69
2021/07/30 10:40:16;;;;;;;4.70;2.70;;;;;;;;;;5009808;28;20193;-70
2021/07/30 10:43:06;;;;;;;7.65;2.67;;;;;;;;;;5018215;28;20179;-67
2021/07/30 10:45:32;;;;;;;5.53;2.90;;;;;;;;;;5020738;28;20195;-66
2021/07/30 10:48:13;;;;;;;5.47;2.92;;;;;;;;;;5022304;28;20189;-69
2021/07/30 10:50:47;;;;;;;7.68;2.65;;;;;;;;;;5023635;28;20861;-68
2021/07/30 10:53:38;;;;;;;6.00;2.22;;;;;;;;;;5031529;28;20602;-70
2021/07/30 10:56:29;;;;;;;5.28;2.08;;;;;;;;;;5024251;28;20285;-68
2021/07/30 10:58:56;;;;;;;3.90;2.10;;;;;;;;;;5021277;28;20240;-69
2021/07/30 11:01:28;;;;;;;5.75;2.35;;;;;;;;;;5023787;28;20232;-69
2021/07/30 11:03:53;;;;;;;4.72;2.38;;;;;;;;;;5034681;28;20190;-69
2021/07/30 11:06:31;;;;;;;4.93;2.40;;;;;;;;;;5016599;28;20182;-66
2021/07/30 11:09:09;;;;;;;5.70;2.50;;;;;;;;;;5028534;28;20181;-69
2021/07/30 11:11:34;;;;;;;4.85;2.35;;;;;;;;;;5019979;28;20295;-69
2021/07/30 11:13:59;;;;;;;4.93;2.33;;;;;;;;;;5030465;28;20656;-69
2021/07/30 11:16:24;;;;;;;5.35;2.78;;;;;;;;;;5016715;28;20191;-69
2021/07/30 11:18:50;;;;;;;5.97;2.47;;;;;;;;;;5031495;28;20189;-69
2021/07/30 11:21:15;;;;;;;12.18;3.50;;;;;;;;;;5016449;28;20190;-69
2021/07/30 11:23:44;;;;;;;6.10;2.80;;;;;;;;;;5029140;28;20209;-69
2021/07/30 11:26:10;;;;;;;5.70;2.85;;;;;;;;;;5017477;28;20198;-69
2021/07/30 11:28:35;;;;;;;8.52;3.13;;;;;;;;;;5030798;28;20248;-68
2021/07/30 11:31:02;;;;;;;5.38;3.20;;;;;;;;;;5013667;28;20677;-68
2021/07/30 11:33:27;;;;;;;4.85;3.10;;;;;;;;;;5030437;28;20194;-68
2021/07/30 11:35:53;;;;;;;13.20;4.47;;;;;;;;;;5012305;28;21910;-67
2021/07/30 11:38:19;;;;;;;63.60;17.60;;;;;;;;;;5028312;28;20645;-68
2021/07/30 11:40:44;;;;;;;9.30;3.35;;;;;;;;;;5024898;28;20198;-68
2021/07/30 11:43:09;;;;;;;6.45;3.30;;;;;;;;;;5015478;28;20182;-68
2021/07/30 11:45:35;;;;;;;9.07;3.50;;;;;;;;;;5025342;28;20190;-68
2021/07/30 11:48:10;;;;;;;16.33;3.78;;;;;;;;;;5016526;28;20256;-69
2021/07/30 11:50:35;;;;;;;4.82;3.08;;;;;;;;;;5022316;28;20551;-67
2021/07/30 11:53:06;;;;;;;6.85;3.00;;;;;;;;;;5022573;28;20186;-67
2021/07/30 11:55:31;;;;;;;3.95;2.60;;;;;;;;;;5022648;28;20186;-67
2021/07/30 11:58:07;;;;;;;13.98;3.05;;;;;;;;;;5021662;28;20241;-67
2021/07/30 12:00:32;;;;;;;7.07;2.67;;;;;;;;;;5019324;28;20293;-65
2021/07/30 12:03:15;;;;;;;5.60;2.75;;;;;;;;;;5010564;28;20264;-67
2021/07/30 12:05:41;;;;;;;5.13;2.78;;;;;;;;;;5025503;28;20190;-68
2021/07/30 12:08:08;;;;;;;5.63;2.95;;;;;;;;;;5018394;28;20201;-67
2021/07/30 12:10:37;;;;;;;6.80;2.60;;;;;;;;;;5023143;28;20311;-67
2021/07/30 12:13:03;;;;;;;8.95;2.85;;;;;;;;;;5022191;28;20267;-67
2021/07/30 12:15:29;;;;;;;6.75;3.28;;;;;;;;;;5019730;28;20664;-67
2021/07/30 12:18:03;;;;;;;9.70;3.00;;;;;;;;;;5015274;28;20650;-66
2021/07/30 12:20:33;;;;;;;8.13;3.40;;;;;;;;;;5019927;28;20641;-67
2021/07/30 12:23:09;;;;;;;6.97;3.40;;;;;;;;;;5025832;28;20186;-67
2021/07/30 12:25:43;;;;;;;5.65;3.05;;;;;;;;;;5019687;28;20185;-68
2021/07/30 12:28:13;;;;;;;5.50;3.30;;;;;;;;;;5023773;28;20504;-67
2021/07/30 12:30:40;;;;;;;5.30;2.80;;;;;;;;;;5013811;28;20217;-67
2021/07/30 12:33:30;;;;;;;5.68;3.05;;;;;;;;;;5026088;28;20179;-67
2021/07/30 12:36:09;;;;;;;6.80;3.35;;;;;;;;;;5018529;28;20347;-68
2021/07/30 12:39:07;;;;;;;8.07;3.65;;;;;;;;;;5022112;28;20182;-67
2021/07/30 12:41:36;;;;;;;6.82;3.58;;;;;;;;;;5021138;28;20556;-67
2021/07/30 12:44:16;;;;;;;6.93;3.78;;;;;;;;;;5016690;28;20256;-67
2021/07/30 12:46:47;;;;;;;10.20;3.38;;;;;;;;;;5019752;28;20217;-67
2021/07/30 12:49:14;;;;;;;6.18;3.50;;;;;;;;;;5020720;28;20183;-67
2021/07/30 12:51:44;;;;;;;6.68;3.38;;;;;;;;;;5015288;28;20308;-67
2021/07/30 12:54:11;;;;;;;6.30;3.78;;;;;;;;;;5018299;28;20280;-66
2021/07/30 12:57:03;;;;;;;6.50;3.70;;;;;;;;;;5005960;28;20198;-68
2021/07/30 12:59:54;;;;;;;6.25;3.63;;;;;;;;;;5015798;28;20272;-67
2021/07/30 13:02:24;;;;;;;5.20;3.45;;;;;;;;;;5014976;28;20535;-66
2021/07/30 13:04:50;;;;;;;6.18;3.83;;;;;;;;;;5016254;28;20198;-67
2021/07/30 13:07:17;;;;;;;6.00;3.88;;;;;;;;;;5011460;28;20337;-67
2021/07/30 13:09:43;;;;;;;5.00;3.42;;;;;;;;;;5019105;28;20553;-66
2021/07/30 13:12:09;;;;;;;4.20;3.50;;;;;;;;;;4315749;28;10000737;-67
2021/07/30 13:14:34;;;;;;;4.95;3.25;;;;;;;;;;5016060;28;20194;-67
2021/07/30 13:16:59;;;;;;;5.80;3.30;;;;;;;;;;5009647;28;20240;-67
2021/07/30 13:19:25;;;;;;;8.18;3.75;;;;;;;;;;5010613;28;20249;-68
2021/07/30 13:21:50;;;;;;;8.82;3.67;;;;;;;;;;5010732;28;20575;-67
2021/07/30 13:24:16;;;;;;;6.47;3.45;;;;;;;;;;5013106;28;20206;-66
2021/07/30 13:26:41;;;;;;;6.15;3.50;;;;;;;;;;5031247;28;20198;-66
2021/07/30 13:29:06;;;;;;;7.72;3.58;;;;;;;;;;5015683;28;20194;-67
2021/07/30 13:31:32;;;;;;;6.63;3.05;;;;;;;;;;5024573;28;20210;-67
2021/07/30 13:33:58;;;;;;;8.82;3.00;;;;;;;;;;5010184;28;20324;-68
2021/07/30 13:36:23;;;;;;;4.95;3.22;;;;;;;;;;5017312;28;20183;-67
2021/07/30 13:38:48;;;;;;;5.13;3.30;;;;;;;;;;5006701;28;20194;-68
2021/07/30 13:41:14;;;;;;;4.65;3.30;;;;;;;;;;5020902;28;20863;-68
2021/07/30 13:43:43;;;;;;;4.20;2.90;;;;;;;;;;5013682;28;20190;-67
2021/07/30 13:46:11;;;;;;;6.15;3.30;;;;;;;;;;5021329;28;20735;-68
2021/07/30 13:48:37;;;;;;;4.82;3.13;;;;;;;;;;5006898;28;20194;-68
2021/07/30 13:51:03;;;;;;;6.63;3.53;;;;;;;;;;5014756;28;20356;-67
2021/07/30 13:53:29;;;;;;;6.07;3.55;;;;;;;;;;5007839;28;20307;-68
2021/07/30 13:55:54;;;;;;;6.25;3.60;;;;;;;;;;5017332;28;20578;-68
2021/07/30 13:58:20;;;;;;;6.80;3.30;;;;;;;;;;5005179;28;20233;-68
2021/07/30 14:00:46;;;;;;;4.20;3.35;;;;;;;;;;5017864;28;20201;-67
2021/07/30 14:03:11;;;;;;;4.25;3.60;;;;;;;;;;5012664;28;20296;-67
2021/07/30 14:05:37;;;;;;;6.93;3.50;;;;;;;;;;5011120;28;20197;-67
2021/07/30 14:08:02;;;;;;;4.18;3.13;;;;;;;;;;5015170;28;20288;-68
2021/07/30 14:10:27;;;;;;;8.07;3.60;;;;;;;;;;5006565;28;20486;-68
2021/07/30 14:12:53;;;;;;;4.28;3.20;;;;;;;;;;5010907;28;20209;-68
2021/07/30 14:15:19;;;;;;;5.50;3.33;;;;;;;;;;5009588;28;20204;-67
2021/07/30 14:17:45;;;;;;;4.70;3.10;;;;;;;;;;5015858;28;20236;-70
2021/07/30 14:20:13;;;;;;;5.35;3.05;;;;;;;;;;5011232;28;20562;-68
2021/07/30 14:22:39;;;;;;;4.47;3.30;;;;;;;;;;5017625;28;20236;-67
2021/07/30 14:25:06;;;;;;;7.95;3.88;;;;;;;;;;5011794;28;20209;-68
2021/07/30 14:27:31;;;;;;;6.88;3.53;;;;;;;;;;5019836;28;20193;-68
2021/07/30 14:29:57;;;;;;;7.22;3.58;;;;;;;;;;5008011;28;20194;-68
2021/07/30 14:32:23;;;;;;;6.43;3.42;;;;;;;;;;5018737;28;20242;-67
2021/07/30 14:34:48;;;;;;;7.53;3.20;;;;;;;;;;5016681;28;20190;-68
2021/07/30 14:37:14;;;;;;;8.38;3.95;;;;;;;;;;5018140;28;20599;-67